• Join FlightAware (Why Join?)
  • Login
  • US Flag 
 
06:21AM EST


 

Airport Tracker/Info


-or-


 

Live Flight TrackerFlight Track Log ✈ DAL1990 ✈ 27-Apr-2012 ✈ KATL - KSAV

Flight Track Log - Related Links

Times and Time Zones

All times are in EDT time to prevent confusion due to time zone crossing. See the DAL1990 flight status page for this flight to view local times or setup timezone preferences in your user account.

Time Position Orientation Groundspeed Altitude Reporting Facility
EDT Latitude Longitude Course Direction KTS MPH feet Rate Location/Type
10:03AM 33.6333 -84.3902 271° West  Level FlightAware Approximate
10:04AM 33.6364 -84.5928 256° West 338 389 5,600  Level Atlanta Center
10:05AM 33.6194 -84.6725 202° Southwest 271 312 8,700 2,160 Climbing Atlanta Center
10:06AM 33.5525 -84.7044 171° South 299 344 10,000 1,080 Climbing Atlanta Center
10:07AM 33.4544 -84.6861 129° Southeast 326 375 10,900 1,500 Climbing Atlanta Center
10:08AM 33.3839 -84.5811 120° Southeast 336 387 13,100 2,340 Climbing Atlanta Center
10:09AM 33.3261 -84.4614 121° Southeast 371 427 15,600 2,580 Climbing Atlanta Center
10:10AM 33.2636 -84.3394 119° Southeast 412 474 18,300 2,040 Climbing Atlanta Center
10:11AM 33.2056 -84.2150 122° Southeast 431 496 19,700 1,380 Climbing Atlanta Center
10:12AM 33.1389 -84.0883 126° Southeast 440 506 21,100 1,500 Climbing Atlanta Center
10:13AM 33.0617 -83.9619 144° Southeast 460 529 22,800 900 Climbing Atlanta Center
10:14AM 32.9508 -83.8656 146° Southeast 443 510 23,000 60 Climbing Atlanta Center
10:15AM 32.8442 -83.7792 144° Southeast 454 522 23,000  Level Atlanta Center
10:16AM 32.7397 -83.6906 122° Southeast 459 528 23,000  Level Atlanta Center
10:17AM 32.6725 -83.5650 98° East 446 513 23,000  Level Atlanta Center
10:18AM 32.6550 -83.4172 100° East 426 490 23,000  Level Atlanta Center
10:19AM 32.6311 -83.2644 100° East 443 510 23,000  Level Atlanta Center
10:20AM 32.6072 -83.1117 100° East 454 522 23,000  Level Atlanta Center
10:21AM 32.5853 -82.9664 102° East 454 522 23,000  Level Atlanta Center
10:22AM 32.5586 -82.8164 107° East 464 534 23,000  Level Atlanta Center
10:23AM 32.5197 -82.6692 107° East 464 534 23,000 -780 Level Atlanta Center
10:24AM 32.4825 -82.5294 106° East 452 520 21,500 -1,980 Descending Atlanta Center
10:26AM 32.4219 -82.2872 108° East 423 487 17,400 -2,280 Descending Jacksonville Center
10:27AM 32.3836 -82.1447 108° East 409 471 14,900 -2,220 Descending Jacksonville Center
10:28AM 32.3514 -82.0244 107° East 401 461 13,000 -1,920 Descending Jacksonville Center
10:29AM 32.3236 -81.9167 103° East 387 445 11,100 -1,200 Descending Jacksonville Center
10:30AM 32.2975 -81.7867 96° East 377 434 10,700 -600 Descending Jacksonville Center
10:31AM 32.2881 -81.6858 94° East 351 404 9,900 -900 Descending Jacksonville Center
10:32AM 32.2808 -81.5731 92° East 320 368 9,000 -1,140 Descending Jacksonville Center
10:33AM 32.2778 -81.4822 94° East 309 356 7,700 -1,560 Descending Jacksonville Center
10:34AM 32.2725 -81.3839 95° East 309 356 5,900 -1,980 Descending Jacksonville Center
10:35AM 32.2647 -81.2783 106° East 304 350 3,800 -1,800 Descending Jacksonville Center
10:36AM 32.2450 -81.1953 134° Southeast 276 318 2,300 -1,080 Descending Jacksonville Center
10:37AM 32.2003 -81.1397 134° Southeast 233 268 1,700 -600 Descending Jacksonville Center